Milam, West Virginia
Current Conditions -  °F | °C
As of 7:55 PM on Friday 24 Oct 2014 (Local Time) from KW99 Reporting Station
Clear Clear  
Wind Chill: 51°   Ceiling: Unl
Heat Index: 51°   Visibility: 10mi
Dew Point: 35°   Wind: 0mph
Humidity: 53%   Direction: NA
Pressure: 30.01"   Gusts: NA
Location:  38.81°N, 79.08°W
Report Text: KW99 242355Z AUTO 00000KT 10SM CLR 11/02 A3001 RMK AO2 T01080016 10197 20095
Loading
Personal Weather Stations






























Interactive Weather Map
Tropical Storm Tracking
New forecast layout! Learn more

10-Day Weather Forecast

Advertisements
Track Severe Weather on mobile